createdAt,value
2023-04-03T00:02:09.554Z,100.00
2023-04-03T00:04:37.563Z,100.00
2023-04-03T00:07:05.385Z,100.00
2023-04-03T00:09:33.302Z,100.00
2023-04-03T00:12:01.169Z,100.00
2023-04-03T00:14:29.062Z,100.00
2023-04-03T00:16:57.019Z,100.00
2023-04-03T00:19:24.992Z,100.00
2023-04-03T00:21:53.012Z,100.00
2023-04-03T00:24:23.578Z,100.00
2023-04-03T00:26:51.626Z,100.00
2023-04-03T00:29:22.033Z,100.00
2023-04-03T00:31:58.506Z,100.00
2023-04-03T00:34:31.480Z,100.00
2023-04-03T00:37:02.812Z,100.00
2023-04-03T00:39:42.408Z,100.00
2023-04-03T00:42:12.490Z,100.00
2023-04-03T00:44:40.379Z,100.00
2023-04-03T00:47:09.536Z,100.00
2023-04-03T00:49:38.701Z,100.00
2023-04-03T00:52:10.165Z,100.00
2023-04-03T00:54:42.242Z,100.00
2023-04-03T00:57:25.271Z,100.00
2023-04-03T00:59:57.595Z,100.00
2023-04-03T01:02:33.939Z,100.00
2023-04-03T01:05:02.508Z,100.00
2023-04-03T01:07:32.680Z,100.00
2023-04-03T01:10:02.598Z,100.00
2023-04-03T01:12:33.501Z,100.00
2023-04-03T01:15:03.876Z,100.00
2023-04-03T01:17:46.314Z,100.00
2023-04-03T01:20:24.123Z,100.00
2023-04-03T01:22:52.020Z,100.00
2023-04-03T01:25:23.261Z,100.00
2023-04-03T01:27:51.844Z,100.00
2023-04-03T01:30:32.108Z,100.00
2023-04-03T01:33:03.316Z,100.00
2023-04-03T01:35:38.908Z,100.00
2023-04-03T01:38:07.510Z,100.00
2023-04-03T01:40:35.663Z,100.00
2023-04-03T01:43:08.693Z,100.00
2023-04-03T01:45:39.204Z,100.00
2023-04-03T01:48:07.339Z,100.00
2023-04-03T01:50:35.794Z,100.00
2023-04-03T01:53:07.985Z,100.00
2023-04-03T01:55:44.400Z,100.00
2023-04-03T01:58:25.458Z,100.00
2023-04-03T02:00:54.031Z,100.00
2023-04-03T02:03:26.563Z,100.00
2023-04-03T02:06:03.870Z,100.00
2023-04-03T02:08:34.949Z,100.00
2023-04-03T02:11:07.594Z,100.00
2023-04-03T02:13:38.380Z,100.00
2023-04-03T02:16:12.923Z,100.00
2023-04-03T02:19:05.045Z,100.00
2023-04-03T02:21:53.326Z,100.00
2023-04-03T02:24:28.773Z,100.00
2023-04-03T02:27:16.770Z,100.00
2023-04-03T02:29:44.919Z,100.00
2023-04-03T02:32:19.813Z,100.00
2023-04-03T02:35:04.687Z,100.00
2023-04-03T02:37:36.178Z,100.00
2023-04-03T02:40:17.470Z,100.00
2023-04-03T02:42:49.548Z,100.00
2023-04-03T02:45:17.399Z,100.00
2023-04-03T02:47:45.195Z,100.00
2023-04-03T02:50:16.347Z,100.00
2023-04-03T02:52:44.222Z,100.00
2023-04-03T02:55:14.809Z,100.00
2023-04-03T02:57:42.627Z,100.00
2023-04-03T03:00:10.918Z,100.00
2023-04-03T03:02:41.900Z,100.00
2023-04-03T03:05:09.908Z,100.00
2023-04-03T03:07:38.140Z,100.00
2023-04-03T03:10:06.230Z,100.00
2023-04-03T03:12:34.020Z,100.00
2023-04-03T03:15:05.359Z,100.00
2023-04-03T03:17:33.387Z,100.00
2023-04-03T03:20:06.530Z,100.00
2023-04-03T03:22:34.748Z,100.00
2023-04-03T03:25:05.074Z,100.00
2023-04-03T03:27:35.164Z,100.00
2023-04-03T03:30:03.308Z,100.00
2023-04-03T03:32:33.602Z,100.00
2023-04-03T03:35:04.837Z,100.00
2023-04-03T03:37:32.599Z,100.00
2023-04-03T03:40:00.479Z,100.00
2023-04-03T03:42:28.345Z,100.00
2023-04-03T03:44:56.144Z,100.00
2023-04-03T03:47:23.948Z,100.00
2023-04-03T03:49:54.565Z,100.00
2023-04-03T03:52:22.492Z,100.00
2023-04-03T03:54:50.277Z,100.00
2023-04-03T03:57:21.129Z,100.00
2023-04-03T03:59:49.061Z,100.00
2023-04-03T04:02:18.256Z,100.00
2023-04-03T04:04:46.516Z,100.00
2023-04-03T04:07:14.383Z,100.00
2023-04-03T04:09:42.502Z,100.00
2023-04-03T04:12:10.521Z,100.00
2023-04-03T04:14:38.732Z,100.00
2023-04-03T04:17:07.548Z,100.00
2023-04-03T04:19:37.336Z,100.00
2023-04-03T04:22:05.574Z,100.00
2023-04-03T04:24:33.744Z,100.00
2023-04-03T04:27:03.514Z,100.00
2023-04-03T04:29:40.860Z,100.00
2023-04-03T04:32:09.522Z,100.00
2023-04-03T04:34:37.439Z,100.00
2023-04-03T04:37:05.391Z,100.00
2023-04-03T04:39:33.742Z,100.00
2023-04-03T04:42:02.322Z,100.00
2023-04-03T04:44:31.739Z,100.00
2023-04-03T04:47:00.409Z,100.00
2023-04-03T04:49:28.977Z,100.00
2023-04-03T04:51:59.450Z,100.00
2023-04-03T04:54:30.477Z,100.00
2023-04-03T04:56:59.216Z,100.00
2023-04-03T04:59:27.913Z,100.00
2023-04-03T05:01:56.950Z,100.00
2023-04-03T05:04:24.847Z,100.00
2023-04-03T05:06:56.645Z,100.00
2023-04-03T05:09:26.715Z,100.00
2023-04-03T05:11:54.765Z,100.00
2023-04-03T05:14:24.714Z,100.00
2023-04-03T05:16:52.884Z,100.00
2023-04-03T05:19:21.741Z,100.00
2023-04-03T05:21:50.242Z,100.00
2023-04-03T05:24:18.378Z,100.00
2023-04-03T05:26:46.350Z,100.00
2023-04-03T05:29:21.985Z,100.00
2023-04-03T05:31:51.307Z,100.00
2023-04-03T05:34:19.512Z,100.00
2023-04-03T05:36:48.575Z,100.00
2023-04-03T05:39:17.256Z,100.00
2023-04-03T05:41:51.371Z,100.00
2023-04-03T05:44:22.419Z,100.00
2023-04-03T05:46:52.868Z,100.00
2023-04-03T05:49:20.941Z,100.00
2023-04-03T05:51:51.100Z,100.00
2023-04-03T05:54:26.376Z,100.00
2023-04-03T05:56:57.389Z,100.00
2023-04-03T05:59:28.767Z,100.00
2023-04-03T06:01:58.549Z,100.00
2023-04-03T06:04:26.795Z,100.00
2023-04-03T06:06:58.925Z,100.00
2023-04-03T06:09:46.885Z,100.00
2023-04-03T06:12:35.114Z,100.00
2023-04-03T06:15:03.619Z,100.00
2023-04-03T06:17:38.703Z,100.00
2023-04-03T06:20:15.800Z,99.72
2023-04-03T06:23:02.004Z,99.51
2023-04-03T06:25:41.875Z,98.76
2023-04-03T06:28:10.311Z,99.07
2023-04-03T06:30:38.388Z,99.43
2023-04-03T06:33:06.524Z,99.18
2023-04-03T06:35:34.534Z,98.66
2023-04-03T06:38:05.154Z,98.79
2023-04-03T06:40:40.729Z,98.23
2023-04-03T06:43:11.008Z,97.76
2023-04-03T06:45:41.728Z,97.80
2023-04-03T06:48:09.770Z,97.88
2023-04-03T06:50:40.574Z,97.93
2023-04-03T06:53:08.446Z,98.03
2023-04-03T06:55:36.809Z,96.91
2023-04-03T06:58:07.358Z,95.20
2023-04-03T07:00:35.490Z,95.21
2023-04-03T07:03:06.532Z,95.59
2023-04-03T07:05:34.546Z,95.02
2023-04-03T07:08:02.420Z,95.72
2023-04-03T07:10:30.354Z,94.60
2023-04-03T07:12:58.164Z,93.71
2023-04-03T07:15:26.181Z,93.76
2023-04-03T07:17:53.948Z,93.94
2023-04-03T07:20:21.793Z,92.84
2023-04-03T07:22:49.733Z,93.23
2023-04-03T07:25:17.740Z,92.88
2023-04-03T07:27:45.604Z,92.20
2023-04-03T07:30:16.246Z,91.73
2023-04-03T07:32:44.900Z,91.93
2023-04-03T07:35:13.244Z,91.28
2023-04-03T07:37:41.133Z,91.09
2023-04-03T07:40:09.223Z,90.38
2023-04-03T07:42:36.977Z,90.16
2023-04-03T07:45:05.290Z,87.43
2023-04-03T07:47:33.250Z,87.70
2023-04-03T07:50:01.124Z,86.32
2023-04-03T07:52:29.129Z,87.35
2023-04-03T07:54:57.022Z,86.36
2023-04-03T07:57:24.851Z,85.28
2023-04-03T07:59:53.060Z,83.92
2023-04-03T08:02:20.874Z,83.46
2023-04-03T08:04:49.127Z,83.50
2023-04-03T08:07:17.269Z,84.04
2023-04-03T08:09:45.158Z,83.40
2023-04-03T08:12:13.144Z,83.11
2023-04-03T08:14:41.175Z,83.66
2023-04-03T08:17:09.316Z,82.04
2023-04-03T08:19:37.244Z,80.79
2023-04-03T08:22:05.276Z,79.87
2023-04-03T08:24:33.952Z,80.51
2023-04-03T08:27:01.973Z,80.22
2023-04-03T08:29:30.145Z,78.80
2023-04-03T08:32:03.537Z,76.88
2023-04-03T08:34:32.109Z,76.72
2023-04-03T08:37:03.195Z,77.46
2023-04-03T08:39:31.091Z,78.07
2023-04-03T08:42:04.102Z,76.20
2023-04-03T08:44:47.603Z,74.38
2023-04-03T08:47:21.676Z,75.67
2023-04-03T08:49:52.382Z,71.74
2023-04-03T08:52:44.778Z,71.58
2023-04-03T08:55:31.356Z,73.06
2023-04-03T08:58:04.170Z,71.83
2023-04-03T09:00:59.264Z,72.70
2023-04-03T09:03:37.649Z,71.30
2023-04-03T09:06:14.806Z,70.30
2023-04-03T09:08:47.124Z,67.24
2023-04-03T09:11:19.445Z,69.59
2023-04-03T09:13:53.037Z,67.55
2023-04-03T09:16:26.016Z,67.81
2023-04-03T09:19:03.397Z,69.28
2023-04-03T09:21:37.810Z,69.61
2023-04-03T09:24:07.270Z,67.36
2023-04-03T09:26:52.374Z,67.63
2023-04-03T09:29:35.287Z,67.51
2023-04-03T09:32:10.776Z,69.15
2023-04-03T09:35:18.881Z,67.58
2023-04-03T09:37:52.496Z,68.38
2023-04-03T09:40:46.831Z,70.59
2023-04-03T09:43:18.206Z,69.61
2023-04-03T09:45:46.768Z,68.66
2023-04-03T09:48:30.537Z,67.62
2023-04-03T09:50:59.851Z,69.23
2023-04-03T09:53:51.543Z,68.91
2023-04-03T09:56:29.394Z,62.03
2023-04-03T09:59:21.007Z,61.07
2023-04-03T10:02:00.309Z,61.31
2023-04-03T10:04:38.001Z,60.36
2023-04-03T10:07:41.211Z,60.43
2023-04-03T10:10:25.154Z,60.28
2023-04-03T10:13:24.835Z,60.62
2023-04-03T10:16:18.343Z,54.25
2023-04-03T10:19:22.719Z,52.36
2023-04-03T10:22:40.153Z,52.37
2023-04-03T10:25:33.562Z,51.76
2023-04-03T10:28:15.280Z,51.65
2023-04-03T10:30:57.340Z,53.23
2023-04-03T10:33:54.188Z,55.60
2023-04-03T10:36:48.078Z,54.93
2023-04-03T10:39:42.555Z,56.72
2023-04-03T10:42:36.312Z,56.00
2023-04-03T10:45:32.100Z,55.64
2023-04-03T10:48:14.013Z,54.23
2023-04-03T10:50:54.504Z,52.10
2023-04-03T10:53:52.890Z,50.28
2023-04-03T10:57:10.855Z,49.27
2023-04-03T11:00:08.656Z,48.41
2023-04-03T11:03:14.329Z,48.86
2023-04-03T11:05:46.662Z,48.43
2023-04-03T11:08:50.919Z,48.33
2023-04-03T11:11:44.035Z,45.40
2023-04-03T11:14:36.246Z,46.83
2023-04-03T11:17:19.258Z,46.29
2023-04-03T11:19:58.420Z,47.69
2023-04-03T11:22:35.718Z,49.11
2023-04-03T11:25:11.033Z,47.90
2023-04-03T11:27:57.624Z,47.91
2023-04-03T11:30:35.252Z,47.98
2023-04-03T11:33:15.025Z,46.03
2023-04-03T11:35:46.218Z,45.32
2023-04-03T11:38:18.604Z,43.84
2023-04-03T11:40:59.435Z,44.31
2023-04-03T11:43:31.135Z,43.77
2023-04-03T11:46:19.880Z,43.64
2023-04-03T11:49:01.238Z,40.90
2023-04-03T11:51:32.269Z,39.92
2023-04-03T11:54:24.992Z,40.61
2023-04-03T11:57:44.945Z,41.01
2023-04-03T12:00:31.429Z,41.26
2023-04-03T12:03:00.529Z,39.82
2023-04-03T12:05:43.058Z,41.43
2023-04-03T12:08:17.334Z,41.20
2023-04-03T12:11:05.414Z,42.98
2023-04-03T12:13:33.656Z,44.47
2023-04-03T12:16:01.995Z,44.91
2023-04-03T12:18:49.147Z,44.38
2023-04-03T12:21:32.466Z,39.83
2023-04-03T12:24:20.742Z,40.09
2023-04-03T12:27:20.897Z,40.53
2023-04-03T12:30:26.828Z,38.88
2023-04-03T12:33:18.645Z,35.99
2023-04-03T12:35:55.995Z,35.11
2023-04-03T12:38:50.221Z,35.84
2023-04-03T12:41:18.290Z,35.89
2023-04-03T12:43:55.366Z,35.21
2023-04-03T12:46:39.131Z,34.63
2023-04-03T12:49:16.016Z,35.67
2023-04-03T12:51:48.843Z,34.73
2023-04-03T12:54:37.527Z,34.85
2023-04-03T12:57:18.798Z,35.55
2023-04-03T12:59:49.826Z,34.94
2023-04-03T13:02:23.125Z,36.89
2023-04-03T13:04:55.918Z,37.13
2023-04-03T13:07:30.870Z,36.92
2023-04-03T13:10:16.637Z,36.14
2023-04-03T13:12:55.686Z,35.75
2023-04-03T13:15:30.484Z,36.30
2023-04-03T13:17:59.043Z,37.50
2023-04-03T13:20:34.435Z,38.53
2023-04-03T13:23:16.093Z,37.87
2023-04-03T13:25:50.643Z,35.26
2023-04-03T13:28:21.104Z,35.83
2023-04-03T13:31:07.089Z,34.77
2023-04-03T13:33:36.301Z,37.34
2023-04-03T13:36:06.610Z,38.70
2023-04-03T13:38:35.462Z,40.87
2023-04-03T13:41:23.664Z,40.01
2023-04-03T13:44:06.595Z,38.73
2023-04-03T13:47:01.228Z,37.31
2023-04-03T13:49:34.541Z,35.84
2023-04-03T13:52:24.433Z,32.65
2023-04-03T13:55:26.582Z,34.39
2023-04-03T13:58:15.321Z,33.65
2023-04-03T14:01:23.615Z,35.13
2023-04-03T14:04:22.007Z,34.05
2023-04-03T14:07:21.275Z,31.97
2023-04-03T14:09:55.614Z,33.29
2023-04-03T14:12:52.875Z,34.43
2023-04-03T14:15:25.832Z,35.09
2023-04-03T14:18:06.641Z,35.72
2023-04-03T14:20:39.673Z,36.55
2023-04-03T14:23:11.784Z,35.98
2023-04-03T14:26:10.916Z,36.53
2023-04-03T14:28:59.178Z,35.39
2023-04-03T14:32:11.582Z,36.63
2023-04-03T14:34:45.299Z,36.59
2023-04-03T14:37:16.660Z,37.63
2023-04-03T14:39:44.958Z,37.95
2023-04-03T14:42:33.988Z,39.13
2023-04-03T14:45:10.180Z,39.52
2023-04-03T14:47:51.087Z,40.18
2023-04-03T14:50:20.482Z,41.15
2023-04-03T14:52:57.153Z,42.06
2023-04-03T14:55:34.119Z,42.47
2023-04-03T14:58:02.117Z,42.36
2023-04-03T15:00:29.925Z,42.00
2023-04-03T15:03:01.001Z,42.82
2023-04-03T15:05:29.436Z,42.17
2023-04-03T15:07:58.582Z,42.53
2023-04-03T15:10:29.255Z,43.06
2023-04-03T15:12:57.723Z,43.88
2023-04-03T15:15:29.217Z,44.72
2023-04-03T15:17:58.125Z,45.58
2023-04-03T15:20:27.790Z,46.16
2023-04-03T15:22:55.610Z,46.74
2023-04-03T15:25:24.154Z,46.52
2023-04-03T15:27:52.346Z,46.56
2023-04-03T15:30:20.333Z,46.41
2023-04-03T15:32:48.715Z,46.85
2023-04-03T15:35:16.682Z,45.52
2023-04-03T15:37:44.615Z,45.64
2023-04-03T15:40:12.881Z,46.88
2023-04-03T15:42:40.885Z,46.32
2023-04-03T15:45:09.107Z,46.47
2023-04-03T15:47:37.214Z,46.48
2023-04-03T15:50:05.902Z,46.53
2023-04-03T15:52:34.314Z,46.72
2023-04-03T15:55:02.280Z,46.96
2023-04-03T16:00:03.186Z,46.83
2023-04-03T16:02:37.073Z,47.21
2023-04-03T16:05:05.348Z,47.73
2023-04-03T16:07:33.195Z,48.19
2023-04-03T16:10:01.288Z,48.29
2023-04-03T16:12:29.640Z,47.78
2023-04-03T16:14:57.475Z,48.73
2023-04-03T16:17:26.916Z,49.17
2023-04-03T16:19:55.667Z,48.81
2023-04-03T16:22:27.220Z,48.81
2023-04-03T16:24:55.167Z,49.16
2023-04-03T16:27:23.373Z,49.19
2023-04-03T16:29:51.417Z,49.82
2023-04-03T16:32:19.996Z,48.83
2023-04-03T16:34:48.095Z,49.00
2023-04-03T16:37:16.472Z,49.36
2023-04-03T16:39:44.878Z,49.40
2023-04-03T16:42:13.226Z,49.84
2023-04-03T16:44:41.074Z,50.02
2023-04-03T16:47:09.374Z,50.45
2023-04-03T16:49:37.425Z,50.63
2023-04-03T16:52:06.129Z,50.88
2023-04-03T16:54:34.858Z,50.06
2023-04-03T16:57:02.691Z,50.37
2023-04-03T16:59:30.529Z,50.53
2023-04-03T17:01:58.469Z,51.01
2023-04-03T17:04:26.459Z,51.01
2023-04-03T17:06:55.294Z,51.57
2023-04-03T17:12:09.192Z,52.59
2023-04-03T17:14:40.315Z,52.81
2023-04-03T17:17:08.610Z,52.75
2023-04-03T17:19:38.143Z,52.88
2023-04-03T17:22:06.135Z,53.24
2023-04-03T17:24:34.436Z,53.41
2023-04-03T17:27:02.664Z,53.04
2023-04-03T17:29:30.476Z,53.25
2023-04-03T17:31:58.684Z,53.69
2023-04-03T17:34:26.973Z,53.47
2023-04-03T17:36:55.602Z,53.78
2023-04-03T17:39:26.661Z,53.69
2023-04-03T17:41:54.773Z,53.59
2023-04-03T17:44:22.783Z,54.21
2023-04-03T17:46:51.174Z,54.60
2023-04-03T17:49:19.653Z,54.65
2023-04-03T17:51:47.942Z,54.48
2023-04-03T17:54:16.316Z,54.31
2023-04-03T17:56:44.660Z,54.21
2023-04-03T17:59:13.228Z,54.65
2023-04-03T18:01:45.823Z,54.88
2023-04-03T18:04:16.749Z,55.13
2023-04-03T18:06:49.944Z,55.57
2023-04-03T18:09:21.945Z,55.41
2023-04-03T18:11:51.299Z,55.44
2023-04-03T18:14:22.652Z,55.91
2023-04-03T18:16:51.120Z,55.66
2023-04-03T18:19:22.531Z,55.92
2023-04-03T18:21:55.128Z,55.81
2023-04-03T18:24:24.147Z,55.84
2023-04-03T18:27:00.428Z,56.16
2023-04-03T18:29:31.240Z,56.40
2023-04-03T18:32:02.955Z,56.43
2023-04-03T18:34:31.873Z,56.67
2023-04-03T18:37:00.337Z,56.62
2023-04-03T18:39:28.700Z,56.65
2023-04-03T18:41:58.942Z,56.68
2023-04-03T18:44:28.017Z,57.00
2023-04-03T18:47:04.239Z,56.58
2023-04-03T18:49:34.641Z,57.00
2023-04-03T18:52:03.568Z,57.08
2023-04-03T18:54:37.204Z,57.34
2023-04-03T18:57:06.102Z,57.41
2023-04-03T18:59:34.251Z,57.43
2023-04-03T19:02:02.595Z,57.81
2023-04-03T19:04:30.816Z,57.95
2023-04-03T19:06:59.287Z,58.11
2023-04-03T19:09:27.576Z,58.21
2023-04-03T19:11:55.353Z,58.36
2023-04-03T19:14:23.296Z,58.52
2023-04-03T19:16:51.674Z,58.74
2023-04-03T19:19:22.043Z,58.50
2023-04-03T19:21:50.656Z,58.64
2023-04-03T19:24:19.099Z,58.80
2023-04-03T19:26:47.306Z,58.71
2023-04-03T19:29:16.595Z,59.12
2023-04-03T19:31:44.995Z,58.97
2023-04-03T19:34:13.116Z,59.32
2023-04-03T19:36:40.993Z,59.53
2023-04-03T19:39:09.020Z,59.59
2023-04-03T19:41:36.999Z,59.69
2023-04-03T19:44:06.141Z,59.66
2023-04-03T19:46:34.721Z,59.86
2023-04-03T19:49:03.440Z,59.93
2023-04-03T19:51:31.940Z,59.91
2023-04-03T19:53:59.808Z,60.17
2023-04-03T19:56:27.677Z,60.20
2023-04-03T19:58:56.009Z,60.47
2023-04-03T20:01:24.022Z,60.56
2023-04-03T20:03:52.058Z,60.63
2023-04-03T20:06:20.051Z,60.55
2023-04-03T20:08:48.028Z,60.59
2023-04-03T20:11:15.872Z,60.57
2023-04-03T20:13:43.671Z,60.55
2023-04-03T20:16:12.424Z,60.59
2023-04-03T20:18:40.617Z,60.76
2023-04-03T20:21:08.660Z,61.03
2023-04-03T20:23:36.816Z,61.15
2023-04-03T20:26:11.348Z,61.09
2023-04-03T20:28:43.099Z,61.14
2023-04-03T20:31:11.049Z,61.21
2023-04-03T20:33:38.889Z,61.08
2023-04-03T20:36:07.073Z,61.15
2023-04-03T20:38:35.085Z,61.42
2023-04-03T20:41:03.008Z,61.45
2023-04-03T20:43:31.152Z,61.50
2023-04-03T20:46:03.002Z,61.69
2023-04-03T20:48:31.394Z,61.95
2023-04-03T20:50:59.228Z,61.97
2023-04-03T20:53:27.281Z,62.08
2023-04-03T20:55:59.165Z,62.13
2023-04-03T20:58:30.131Z,62.27
2023-04-03T21:00:58.090Z,62.26
2023-04-03T21:03:27.779Z,62.48
2023-04-03T21:05:58.579Z,62.57
2023-04-03T21:08:45.691Z,62.60
2023-04-03T21:11:32.408Z,62.47
2023-04-03T21:14:19.266Z,62.75
2023-04-03T21:16:47.050Z,62.67
2023-04-03T21:19:21.105Z,62.92
2023-04-03T21:21:49.001Z,62.97
2023-04-03T21:24:17.486Z,63.17
2023-04-03T21:26:45.825Z,63.18
2023-04-03T21:29:14.448Z,63.29
2023-04-03T21:31:55.886Z,63.53
2023-04-03T21:34:29.708Z,63.77
2023-04-03T21:37:01.411Z,63.94
2023-04-03T21:39:29.732Z,64.17
2023-04-03T21:42:00.404Z,64.24
2023-04-03T21:44:28.501Z,64.47
2023-04-03T21:46:59.774Z,64.53
2023-04-03T21:49:27.986Z,64.67
2023-04-03T21:51:55.740Z,64.78
2023-04-03T21:54:24.497Z,64.77
2023-04-03T21:56:52.560Z,64.91
2023-04-03T21:59:20.567Z,65.19
2023-04-03T22:01:48.812Z,65.34
2023-04-03T22:04:16.622Z,65.55
2023-04-03T22:06:46.920Z,65.80
2023-04-03T22:09:15.051Z,65.96
2023-04-03T22:11:56.262Z,65.93
2023-04-03T22:14:26.751Z,66.02
2023-04-03T22:16:59.762Z,66.28
2023-04-03T22:19:27.738Z,66.53
2023-04-03T22:21:55.573Z,66.67
2023-04-03T22:24:43.867Z,66.57
2023-04-03T22:27:11.804Z,66.85
2023-04-03T22:29:39.700Z,66.70
2023-04-03T22:32:07.772Z,66.89
2023-04-03T22:34:38.409Z,67.01
2023-04-03T22:37:06.177Z,67.27
2023-04-03T22:39:34.049Z,67.32
2023-04-03T22:42:02.477Z,67.67
2023-04-03T22:44:36.117Z,67.71
2023-04-03T22:47:04.453Z,68.04
2023-04-03T22:49:32.274Z,68.30
2023-04-03T22:51:59.964Z,68.47
2023-04-03T22:54:27.762Z,68.71
2023-04-03T22:56:55.517Z,68.81
2023-04-03T22:59:23.230Z,69.17
2023-04-03T23:01:51.022Z,69.30
2023-04-03T23:04:18.832Z,69.60
2023-04-03T23:06:46.661Z,69.96
2023-04-03T23:09:14.575Z,70.30
2023-04-03T23:11:42.293Z,70.60
2023-04-03T23:14:09.991Z,70.72
2023-04-03T23:16:37.777Z,70.95
2023-04-03T23:19:05.464Z,71.34
2023-04-03T23:21:33.153Z,71.60
2023-04-03T23:24:00.904Z,71.68
2023-04-03T23:26:28.581Z,72.02
2023-04-03T23:28:56.471Z,72.22
2023-04-03T23:31:24.266Z,72.57
2023-04-03T23:33:52.099Z,72.63
2023-04-03T23:36:19.826Z,72.73
2023-04-03T23:38:47.600Z,72.61
2023-04-03T23:41:15.267Z,72.56
2023-04-03T23:43:43.100Z,72.80
2023-04-03T23:46:10.999Z,73.00
2023-04-03T23:48:38.702Z,73.14
2023-04-03T23:51:06.490Z,73.23
2023-04-03T23:53:34.202Z,73.55
2023-04-03T23:56:01.939Z,73.68
2023-04-03T23:58:29.634Z,73.87
